createdAt,value
2023-02-25T00:01:57.720Z,96428.55
2023-02-25T00:04:31.600Z,96422.68
2023-02-25T00:07:00.421Z,96419.82
2023-02-25T00:09:30.124Z,96407.96
2023-02-25T00:11:58.183Z,96417.77
2023-02-25T00:14:26.927Z,96412.52
2023-02-25T00:16:56.314Z,96409.12
2023-02-25T00:19:25.618Z,96403.69
2023-02-25T00:21:53.695Z,96403.41
2023-02-25T00:24:21.719Z,96404.28
2023-02-25T00:26:50.454Z,96397.19
2023-02-25T00:29:18.504Z,96388.02
2023-02-25T00:31:47.111Z,96391.73
2023-02-25T00:34:17.978Z,96384.40
2023-02-25T00:36:46.300Z,96370.91
2023-02-25T00:39:14.682Z,96372.05
2023-02-25T00:41:42.903Z,96376.85
2023-02-25T00:44:11.409Z,96376.46
2023-02-25T00:46:39.540Z,96365.14
2023-02-25T00:49:07.520Z,96364.34
2023-02-25T00:51:35.561Z,96358.59
2023-02-25T00:54:03.667Z,96361.46
2023-02-25T00:56:32.004Z,96362.59
2023-02-25T00:59:00.484Z,96361.40
2023-02-25T01:01:33.814Z,96354.88
2023-02-25T01:04:02.104Z,96341.61
2023-02-25T01:06:32.976Z,96327.46
2023-02-25T01:09:01.605Z,96326.77
2023-02-25T01:11:34.950Z,96315.32
2023-02-25T01:14:06.314Z,96313.07
2023-02-25T01:16:35.642Z,96319.88
2023-02-25T01:19:26.095Z,96313.21
2023-02-25T01:21:56.851Z,96310.27
2023-02-25T01:24:31.002Z,96315.73
2023-02-25T01:27:01.917Z,96305.52
2023-02-25T01:29:35.568Z,96294.31
2023-02-25T01:32:04.725Z,96297.73
2023-02-25T01:34:33.219Z,96299.56
2023-02-25T01:37:05.605Z,96295.54
2023-02-25T01:39:34.314Z,96292.54
2023-02-25T01:42:12.575Z,96291.34
2023-02-25T01:45:11.764Z,96282.38
2023-02-25T01:47:40.964Z,96283.71
2023-02-25T01:50:10.280Z,96284.51
2023-02-25T01:52:41.649Z,96278.34
2023-02-25T01:55:10.717Z,96273.83
2023-02-25T01:57:38.772Z,96277.04
2023-02-25T02:00:18.486Z,96273.25
2023-02-25T02:02:49.837Z,96266.77
2023-02-25T02:05:18.123Z,96260.42
2023-02-25T02:07:47.307Z,96258.73
2023-02-25T02:10:15.540Z,96260.06
2023-02-25T02:12:47.512Z,96257.23
2023-02-25T02:15:15.964Z,96236.68
2023-02-25T02:17:55.437Z,96231.40
2023-02-25T02:20:33.530Z,96233.84
2023-02-25T02:23:04.604Z,96234.90
2023-02-25T02:25:36.747Z,96237.36
2023-02-25T02:28:33.181Z,96227.07
2023-02-25T02:31:28.814Z,96228.97
2023-02-25T02:34:29.797Z,96220.05
2023-02-25T02:37:00.483Z,96213.16
2023-02-25T02:40:00.444Z,96208.48
2023-02-25T02:42:56.412Z,96200.20
2023-02-25T02:45:44.638Z,96211.72
2023-02-25T02:48:23.277Z,96219.79
2023-02-25T02:50:59.971Z,96215.63
2023-02-25T02:53:38.897Z,96220.73
2023-02-25T02:56:11.409Z,96219.56
2023-02-25T02:58:44.498Z,96219.33
2023-02-25T03:01:17.857Z,96219.10
2023-02-25T03:03:59.892Z,96218.19
2023-02-25T03:06:38.744Z,96212.17
2023-02-25T03:09:13.195Z,96205.61
2023-02-25T03:11:41.667Z,96207.38
2023-02-25T03:14:11.781Z,96203.40
2023-02-25T03:17:05.873Z,96194.43
2023-02-25T03:19:42.501Z,96200.34
2023-02-25T03:22:17.384Z,96199.52
2023-02-25T03:25:08.776Z,96191.70
2023-02-25T03:27:40.119Z,96183.88
2023-02-25T03:30:27.117Z,96189.34
2023-02-25T03:33:08.044Z,96186.31
2023-02-25T03:35:37.977Z,96171.36
2023-02-25T03:38:14.675Z,96167.20
2023-02-25T03:40:43.755Z,96159.10
2023-02-25T03:43:18.051Z,96153.10
2023-02-25T03:45:47.226Z,96153.90
2023-02-25T03:48:17.293Z,96136.69
2023-02-25T03:50:51.905Z,96132.21
2023-02-25T03:53:20.845Z,96141.06
2023-02-25T03:55:56.691Z,96144.00
2023-02-25T03:58:24.958Z,96141.29
2023-02-25T04:00:57.733Z,96154.30
2023-02-25T04:03:26.037Z,96156.94
2023-02-25T04:05:54.463Z,96162.65
2023-02-25T04:08:24.096Z,96160.89
2023-02-25T04:10:52.377Z,96160.25
2023-02-25T04:13:21.058Z,96155.68
2023-02-25T04:15:50.519Z,96146.88
2023-02-25T04:18:18.677Z,96147.16
2023-02-25T04:20:46.737Z,96148.71
2023-02-25T04:23:16.764Z,96136.39
2023-02-25T04:25:45.064Z,96127.98
2023-02-25T04:28:13.137Z,96119.32
2023-02-25T04:30:41.231Z,96108.08
2023-02-25T04:33:11.852Z,96089.83
2023-02-25T04:35:40.144Z,96083.66
2023-02-25T04:38:09.196Z,96085.11
2023-02-25T04:40:37.455Z,96090.98
2023-02-25T04:43:05.828Z,96088.53
2023-02-25T04:45:33.861Z,96075.77
2023-02-25T04:48:02.895Z,96078.95
2023-02-25T04:50:30.857Z,96085.84
2023-02-25T04:53:02.341Z,96087.86
2023-02-25T04:55:31.483Z,96090.40
2023-02-25T04:57:59.547Z,96091.84
2023-02-25T05:00:27.742Z,96087.97
2023-02-25T05:02:56.417Z,96071.65
2023-02-25T05:05:24.487Z,96072.50
2023-02-25T05:07:52.418Z,96065.94
2023-02-25T05:10:20.697Z,96049.83
2023-02-25T05:12:49.927Z,96063.36
2023-02-25T05:15:18.017Z,96078.91
2023-02-25T05:17:46.049Z,96077.27
2023-02-25T05:20:14.753Z,96078.70
2023-02-25T05:22:45.651Z,96064.01
2023-02-25T05:25:13.570Z,96050.67
2023-02-25T05:27:41.472Z,96057.77
2023-02-25T05:30:13.000Z,96054.27
2023-02-25T05:32:41.051Z,96049.65
2023-02-25T05:35:10.075Z,96052.33
2023-02-25T05:37:40.259Z,96055.42
2023-02-25T05:40:10.270Z,96044.98
2023-02-25T05:42:39.335Z,96049.66
2023-02-25T05:45:11.481Z,96045.42
2023-02-25T05:47:39.471Z,96030.05
2023-02-25T05:50:08.468Z,96028.03
2023-02-25T05:52:38.046Z,96033.75
2023-02-25T05:55:08.757Z,96029.34
2023-02-25T05:57:37.010Z,96022.38
2023-02-25T06:00:15.002Z,96022.79
2023-02-25T06:02:44.539Z,96014.13
2023-02-25T06:05:12.999Z,96011.36
2023-02-25T06:07:41.606Z,96015.23
2023-02-25T06:10:10.441Z,96017.60
2023-02-25T06:12:40.040Z,96014.34
2023-02-25T06:15:08.656Z,96023.08
2023-02-25T06:17:37.203Z,96019.41
2023-02-25T06:20:06.279Z,96013.32
2023-02-25T06:22:35.371Z,96016.89
2023-02-25T06:25:03.596Z,96018.09
2023-02-25T06:27:31.821Z,96026.76
2023-02-25T06:30:03.360Z,96035.52
2023-02-25T06:32:31.688Z,96034.63
2023-02-25T06:35:00.125Z,96033.42
2023-02-25T06:37:28.440Z,96030.27
2023-02-25T06:39:56.532Z,96031.57
2023-02-25T06:42:24.997Z,96023.90
2023-02-25T06:44:53.123Z,96023.70
2023-02-25T06:47:23.056Z,96029.00
2023-02-25T06:49:51.080Z,96032.39
2023-02-25T06:52:19.113Z,96016.75
2023-02-25T06:54:47.086Z,96001.45
2023-02-25T06:57:15.073Z,96000.81
2023-02-25T06:59:43.263Z,96003.85
2023-02-25T07:02:14.648Z,96019.17
2023-02-25T07:04:44.059Z,96026.19
2023-02-25T07:07:12.344Z,96025.47
2023-02-25T07:09:40.334Z,96025.75
2023-02-25T07:12:08.693Z,96026.05
2023-02-25T07:14:37.599Z,96024.89
2023-02-25T07:17:06.312Z,96002.55
2023-02-25T07:19:34.882Z,96006.66
2023-02-25T07:22:03.355Z,96002.92
2023-02-25T07:24:31.654Z,96002.60
2023-02-25T07:26:59.550Z,95992.03
2023-02-25T07:29:27.998Z,95986.22
2023-02-25T07:31:56.311Z,95971.13
2023-02-25T07:34:24.620Z,95958.66
2023-02-25T07:36:52.726Z,95961.27
2023-02-25T07:39:20.816Z,95962.11
2023-02-25T07:41:48.970Z,95949.00
2023-02-25T07:44:21.078Z,95927.54
2023-02-25T07:46:49.549Z,95917.13
2023-02-25T07:49:17.636Z,95909.58
2023-02-25T07:51:45.721Z,95914.44
2023-02-25T07:54:15.857Z,95903.48
2023-02-25T07:56:45.895Z,95901.36
2023-02-25T07:59:14.071Z,95906.98
2023-02-25T08:01:42.165Z,95893.44
2023-02-25T08:04:11.822Z,95893.95
2023-02-25T08:06:41.450Z,95894.23
2023-02-25T08:09:12.509Z,95889.99
2023-02-25T08:11:41.581Z,95899.63
2023-02-25T08:14:10.103Z,95903.64
2023-02-25T08:16:38.442Z,95909.22
2023-02-25T08:19:07.046Z,95887.40
2023-02-25T08:21:37.444Z,95877.11
2023-02-25T08:24:06.438Z,95891.30
2023-02-25T08:26:34.454Z,95898.39
2023-02-25T08:29:05.588Z,95890.06
2023-02-25T08:31:35.070Z,95886.77
2023-02-25T08:34:03.609Z,95882.20
2023-02-25T08:36:31.926Z,95872.01
2023-02-25T08:39:01.389Z,95869.89
2023-02-25T08:41:30.477Z,95862.77
2023-02-25T08:44:00.780Z,95865.36
2023-02-25T08:46:31.858Z,95863.75
2023-02-25T08:49:02.303Z,95841.80
2023-02-25T08:51:34.753Z,95830.20
2023-02-25T08:54:06.824Z,95836.77
2023-02-25T08:56:37.596Z,95847.78
2023-02-25T08:59:06.295Z,95840.05
2023-02-25T09:01:46.463Z,95834.08
2023-02-25T09:04:24.428Z,95814.04
2023-02-25T09:06:54.271Z,95815.02
2023-02-25T09:09:22.562Z,95807.77
2023-02-25T09:11:51.357Z,95809.92
2023-02-25T09:14:21.116Z,95808.09
2023-02-25T09:16:49.982Z,95803.57
2023-02-25T09:19:18.656Z,95798.23
2023-02-25T09:21:50.598Z,95785.48
2023-02-25T09:24:19.658Z,95791.80
2023-02-25T09:26:48.266Z,95779.06
2023-02-25T09:29:17.035Z,95777.50
2023-02-25T09:31:45.294Z,95781.04
2023-02-25T09:34:15.505Z,95788.03
2023-02-25T09:36:44.019Z,95784.72
2023-02-25T09:39:15.030Z,95781.59
2023-02-25T09:41:57.129Z,95779.56
2023-02-25T09:44:59.858Z,95776.58
2023-02-25T09:47:42.858Z,95766.59
2023-02-25T09:50:22.363Z,95751.27
2023-02-25T09:53:16.967Z,95755.95
2023-02-25T09:55:51.448Z,95757.19
2023-02-25T09:58:51.141Z,95747.42
2023-02-25T10:01:34.393Z,95737.78
2023-02-25T10:04:13.824Z,95749.55
2023-02-25T10:06:46.570Z,95747.76
2023-02-25T10:09:20.798Z,95740.29
2023-02-25T10:12:18.352Z,95728.09
2023-02-25T10:15:01.030Z,95719.66
2023-02-25T10:18:11.407Z,95717.97
2023-02-25T10:21:17.326Z,95714.11
2023-02-25T10:24:21.321Z,95710.03
2023-02-25T10:26:55.096Z,95715.67
2023-02-25T10:29:52.630Z,95721.35
2023-02-25T10:32:27.776Z,95728.02
2023-02-25T10:35:00.429Z,95728.13
2023-02-25T10:37:36.260Z,95733.10
2023-02-25T10:40:11.950Z,95727.81
2023-02-25T10:42:49.813Z,95734.34
2023-02-25T10:45:26.209Z,95740.25
2023-02-25T10:48:12.632Z,95753.38
2023-02-25T10:50:46.221Z,95758.80
2023-02-25T10:53:18.250Z,95759.96
2023-02-25T10:55:52.446Z,95769.62
2023-02-25T10:58:38.610Z,95778.75
2023-02-25T11:01:20.506Z,95789.90
2023-02-25T11:03:59.834Z,95796.84
2023-02-25T11:06:35.512Z,95817.02
2023-02-25T11:09:25.585Z,95812.14
2023-02-25T11:12:09.713Z,95817.05
2023-02-25T11:14:39.580Z,95818.68
2023-02-25T11:17:15.888Z,95815.00
2023-02-25T11:19:50.743Z,95812.23
2023-02-25T11:22:36.209Z,95818.95
2023-02-25T11:25:15.788Z,95841.55
2023-02-25T11:27:54.168Z,95830.74
2023-02-25T11:30:31.771Z,95827.34
2023-02-25T11:33:04.533Z,95819.09
2023-02-25T11:35:38.810Z,95825.13
2023-02-25T11:38:24.674Z,95833.82
2023-02-25T11:40:53.105Z,95851.61
2023-02-25T11:43:34.185Z,95865.27
2023-02-25T11:46:24.129Z,95874.13
2023-02-25T11:48:58.167Z,95877.21
2023-02-25T11:51:29.220Z,95885.55
2023-02-25T11:54:19.011Z,95892.30
2023-02-25T11:56:57.068Z,95899.62
2023-02-25T11:59:37.469Z,95914.56
2023-02-25T12:02:33.692Z,95924.19
2023-02-25T12:05:09.223Z,95918.91
2023-02-25T12:08:14.304Z,95926.52
2023-02-25T12:10:48.815Z,95930.20
2023-02-25T12:13:42.393Z,95937.39
2023-02-25T12:16:22.997Z,95951.08
2023-02-25T12:18:51.237Z,95954.19
2023-02-25T12:21:34.635Z,95969.31
2023-02-25T12:24:35.337Z,95979.99
2023-02-25T12:27:09.715Z,95995.02
2023-02-25T12:29:56.214Z,95998.38
2023-02-25T12:33:05.882Z,96003.80
2023-02-25T12:35:53.696Z,96022.06
2023-02-25T12:38:54.483Z,96038.97
2023-02-25T12:41:46.164Z,96053.71
2023-02-25T12:44:34.741Z,96052.20
2023-02-25T12:47:27.511Z,96058.55
2023-02-25T12:50:01.692Z,96062.96
2023-02-25T12:52:39.337Z,96057.85
2023-02-25T12:55:30.010Z,96043.90
2023-02-25T12:58:04.137Z,96041.16
2023-02-25T13:00:54.137Z,96038.71
2023-02-25T13:03:35.270Z,96035.64
2023-02-25T13:06:16.467Z,96042.93
2023-02-25T13:08:47.513Z,96056.44
2023-02-25T13:11:31.241Z,96063.79
2023-02-25T13:14:14.055Z,96068.45
2023-02-25T13:17:24.956Z,96070.44
2023-02-25T13:20:27.008Z,96074.07
2023-02-25T13:23:23.013Z,96082.38
2023-02-25T13:26:31.846Z,96084.02
2023-02-25T13:29:20.167Z,96085.64
2023-02-25T13:32:07.509Z,96083.95
2023-02-25T13:35:04.285Z,96077.54
2023-02-25T13:37:47.322Z,96090.55
2023-02-25T13:40:41.150Z,96107.07
2023-02-25T13:43:31.627Z,96091.81
2023-02-25T13:46:23.971Z,96089.21
2023-02-25T13:49:08.584Z,96099.25
2023-02-25T13:51:59.937Z,96097.29
2023-02-25T13:54:54.151Z,96096.44
2023-02-25T13:57:22.215Z,96082.37
2023-02-25T14:00:02.264Z,96081.95
2023-02-25T14:02:40.532Z,96085.55
2023-02-25T14:05:31.399Z,96070.36
2023-02-25T14:08:18.551Z,96064.48
2023-02-25T14:11:07.701Z,96050.67
2023-02-25T14:14:14.571Z,96041.96
2023-02-25T14:17:00.758Z,96045.95
2023-02-25T14:19:49.254Z,96036.94
2023-02-25T14:22:35.831Z,96038.27
2023-02-25T14:25:35.944Z,96035.81
2023-02-25T14:28:45.734Z,96028.26
2023-02-25T14:31:26.733Z,96031.11
2023-02-25T14:34:08.105Z,96024.64
2023-02-25T14:36:59.386Z,96010.82
2023-02-25T14:39:59.997Z,96003.81
2023-02-25T14:43:24.229Z,96013.26
2023-02-25T14:46:17.901Z,95987.63
2023-02-25T14:48:57.927Z,95998.30
2023-02-25T14:51:40.225Z,96002.56
2023-02-25T14:54:20.890Z,96001.38
2023-02-25T14:57:07.445Z,95993.21
2023-02-25T14:59:52.828Z,95999.73
2023-02-25T15:02:38.881Z,96008.23
2023-02-25T15:05:54.747Z,96009.02
2023-02-25T15:08:31.576Z,96012.71
2023-02-25T15:11:33.443Z,96012.34
2023-02-25T15:14:28.528Z,96004.56
2023-02-25T15:17:07.215Z,95995.39
2023-02-25T15:19:45.836Z,95983.95
2023-02-25T15:22:13.779Z,95986.81
2023-02-25T15:24:42.457Z,95997.04
2023-02-25T15:27:35.394Z,95991.42
2023-02-25T15:30:08.877Z,95996.55
2023-02-25T15:33:02.137Z,96010.34
2023-02-25T15:35:36.288Z,96037.63
2023-02-25T15:38:21.060Z,96037.33
2023-02-25T15:40:51.849Z,96050.65
2023-02-25T15:43:19.842Z,96052.54
2023-02-25T15:46:10.884Z,96051.71
2023-02-25T15:48:39.643Z,96055.88
2023-02-25T15:51:11.788Z,96059.34
2023-02-25T15:53:45.026Z,96068.20
2023-02-25T15:56:13.060Z,96091.96
2023-02-25T15:58:56.655Z,96108.74
2023-02-25T16:01:42.595Z,96111.81
2023-02-25T16:04:50.304Z,96119.34
2023-02-25T16:07:21.744Z,96116.16
2023-02-25T16:09:55.246Z,96123.88
2023-02-25T16:12:24.650Z,96129.88
2023-02-25T16:14:54.963Z,96129.71
2023-02-25T16:17:32.814Z,96130.67
2023-02-25T16:20:22.133Z,96141.25
2023-02-25T16:22:57.171Z,96138.15
2023-02-25T16:25:37.182Z,96143.50
2023-02-25T16:28:33.522Z,96164.83
2023-02-25T16:31:25.055Z,96162.16
2023-02-25T16:33:57.420Z,96164.85
2023-02-25T16:36:38.278Z,96169.59
2023-02-25T16:39:21.492Z,96160.23
2023-02-25T16:41:50.168Z,96148.44
2023-02-25T16:44:22.048Z,96167.56
2023-02-25T16:46:53.518Z,96165.65
2023-02-25T16:49:36.962Z,96155.38
2023-02-25T16:52:06.213Z,96147.99
2023-02-25T16:54:38.735Z,96150.25
2023-02-25T16:57:18.472Z,96162.89
2023-02-25T16:59:47.533Z,96165.50
2023-02-25T17:02:15.603Z,96157.21
2023-02-25T17:04:52.071Z,96154.05
2023-02-25T17:07:25.386Z,96175.33
2023-02-25T17:09:59.445Z,96186.50
2023-02-25T17:12:41.284Z,96184.90
2023-02-25T17:15:22.343Z,96178.46
2023-02-25T17:17:58.587Z,96161.90
2023-02-25T17:20:31.102Z,96160.21
2023-02-25T17:23:05.975Z,96167.31
2023-02-25T17:25:39.282Z,96180.60
2023-02-25T17:28:23.009Z,96188.86
2023-02-25T17:30:52.208Z,96201.16
2023-02-25T17:33:26.334Z,96218.48
2023-02-25T17:35:59.724Z,96222.91
2023-02-25T17:38:29.274Z,96223.15
2023-02-25T17:40:59.724Z,96221.39
2023-02-25T17:43:36.651Z,96206.52
2023-02-25T17:46:13.799Z,96199.88
2023-02-25T17:48:49.476Z,96203.49
2023-02-25T17:51:17.646Z,96204.83
2023-02-25T17:53:50.075Z,96204.42
2023-02-25T17:56:37.255Z,96218.98
2023-02-25T17:59:07.243Z,96230.58
2023-02-25T18:01:49.869Z,96228.18
2023-02-25T18:04:41.472Z,96228.50
2023-02-25T18:07:32.731Z,96214.97
2023-02-25T18:10:02.082Z,96215.61
2023-02-25T18:12:33.498Z,96222.27
2023-02-25T18:15:16.565Z,96220.84
2023-02-25T18:17:52.269Z,96220.16
2023-02-25T18:20:26.946Z,96220.16
2023-02-25T18:22:55.878Z,96228.54
2023-02-25T18:25:37.569Z,96242.61
2023-02-25T18:28:11.441Z,96245.31
2023-02-25T18:30:39.644Z,96244.31
2023-02-25T18:33:11.664Z,96248.89
2023-02-25T18:35:42.187Z,96270.95
2023-02-25T18:38:23.560Z,96267.30
2023-02-25T18:40:54.323Z,96261.82
2023-02-25T18:43:28.979Z,96267.04
2023-02-25T18:45:57.182Z,96267.38
2023-02-25T18:48:25.730Z,96258.65
2023-02-25T18:50:55.026Z,96263.71
2023-02-25T18:53:25.587Z,96266.27
2023-02-25T18:55:56.345Z,96261.73
2023-02-25T18:58:25.869Z,96281.31
2023-02-25T19:00:57.231Z,96285.83
2023-02-25T19:03:30.709Z,96281.55
2023-02-25T19:05:59.091Z,96287.02
2023-02-25T19:08:27.309Z,96284.02
2023-02-25T19:10:55.670Z,96290.10
2023-02-25T19:13:27.397Z,96292.05
2023-02-25T19:15:55.772Z,96294.69
2023-02-25T19:18:23.989Z,96286.02
2023-02-25T19:20:52.050Z,96287.83
2023-02-25T19:23:20.703Z,96300.60
2023-02-25T19:25:56.268Z,96311.67
2023-02-25T19:28:24.581Z,96309.34
2023-02-25T19:30:52.537Z,96312.31
2023-02-25T19:33:20.968Z,96313.53
2023-02-25T19:35:49.567Z,96316.33
2023-02-25T19:38:19.878Z,96314.60
2023-02-25T19:40:49.416Z,96310.47
2023-02-25T19:43:18.162Z,96305.40
2023-02-25T19:45:47.182Z,96286.25
2023-02-25T19:48:15.342Z,96270.44
2023-02-25T19:50:43.431Z,96249.52
2023-02-25T19:53:12.267Z,96247.15
2023-02-25T19:55:43.960Z,96270.45
2023-02-25T19:58:12.218Z,96283.29
2023-02-25T20:00:46.414Z,96280.94
2023-02-25T20:03:15.405Z,96288.98
2023-02-25T20:05:44.757Z,96290.00
2023-02-25T20:08:13.031Z,96288.75
2023-02-25T20:10:43.012Z,96271.52
2023-02-25T20:13:11.050Z,96258.71
2023-02-25T20:15:39.482Z,96256.05
2023-02-25T20:18:07.525Z,96265.86
2023-02-25T20:20:36.965Z,96268.67
2023-02-25T20:23:05.155Z,96268.67
2023-02-25T20:25:33.853Z,96270.67
2023-02-25T20:28:01.816Z,96255.60
2023-02-25T20:30:29.841Z,96265.79
2023-02-25T20:32:59.352Z,96281.83
2023-02-25T20:35:27.914Z,96286.46
2023-02-25T20:38:04.568Z,96285.86
2023-02-25T20:40:32.678Z,96281.25
2023-02-25T20:43:02.935Z,96280.14
2023-02-25T20:45:31.563Z,96276.66
2023-02-25T20:47:59.638Z,96271.11
2023-02-25T20:50:28.555Z,96270.63
2023-02-25T20:52:56.748Z,96277.30
2023-02-25T20:55:24.992Z,96280.60
2023-02-25T20:57:53.004Z,96286.73
2023-02-25T21:00:21.869Z,96295.16
2023-02-25T21:02:49.871Z,96305.59
2023-02-25T21:05:17.964Z,96318.38
2023-02-25T21:07:46.083Z,96331.95
2023-02-25T21:10:14.009Z,96337.98
2023-02-25T21:12:42.096Z,96342.73
2023-02-25T21:15:10.716Z,96344.81
2023-02-25T21:17:38.599Z,96352.77
2023-02-25T21:20:07.065Z,96358.82
2023-02-25T21:22:35.524Z,96367.05
2023-02-25T21:25:04.834Z,96369.58
2023-02-25T21:27:32.889Z,96368.17
2023-02-25T21:30:01.641Z,96371.53
2023-02-25T21:32:30.112Z,96371.59
2023-02-25T21:34:58.131Z,96372.95
2023-02-25T21:37:26.969Z,96377.49
2023-02-25T21:39:55.443Z,96371.05
2023-02-25T21:42:23.494Z,96359.20
2023-02-25T21:44:51.972Z,96361.08
2023-02-25T21:47:20.001Z,96358.27
2023-02-25T21:49:48.305Z,96363.29
2023-02-25T21:52:17.228Z,96371.48
2023-02-25T21:54:45.248Z,96378.29
2023-02-25T21:57:13.186Z,96380.49
2023-02-25T21:59:41.133Z,96383.83
2023-02-25T22:02:10.477Z,96389.49
2023-02-25T22:04:38.574Z,96390.84
2023-02-25T22:07:06.582Z,96386.26
2023-02-25T22:09:34.549Z,96393.51
2023-02-25T22:12:02.564Z,96399.52
2023-02-25T22:14:30.600Z,96404.91
2023-02-25T22:16:59.957Z,96408.64
2023-02-25T22:19:29.985Z,96408.40
2023-02-25T22:21:57.967Z,96420.13
2023-02-25T22:24:26.013Z,96425.16
2023-02-25T22:26:54.136Z,96417.33
2023-02-25T22:29:22.720Z,96411.22
2023-02-25T22:31:50.803Z,96408.25
2023-02-25T22:34:19.311Z,96402.05
2023-02-25T22:36:48.056Z,96401.20
2023-02-25T22:39:16.468Z,96401.16
2023-02-25T22:41:44.664Z,96396.47
2023-02-25T22:44:13.274Z,96395.05
2023-02-25T22:46:41.418Z,96399.38
2023-02-25T22:49:12.188Z,96402.36
2023-02-25T22:51:42.784Z,96402.73
2023-02-25T22:54:16.075Z,96401.84
2023-02-25T22:56:45.572Z,96399.41
2023-02-25T22:59:14.673Z,96399.27
2023-02-25T23:01:42.792Z,96400.82
2023-02-25T23:04:11.635Z,96404.27
2023-02-25T23:06:44.496Z,96397.52
2023-02-25T23:09:14.546Z,96390.88
2023-02-25T23:11:44.196Z,96389.02
2023-02-25T23:14:13.432Z,96384.55
2023-02-25T23:16:45.849Z,96381.99
2023-02-25T23:19:17.815Z,96381.02
2023-02-25T23:21:46.089Z,96374.35
2023-02-25T23:24:18.523Z,96376.33
2023-02-25T23:26:50.579Z,96377.16
2023-02-25T23:29:18.899Z,96376.89
2023-02-25T23:31:48.931Z,96382.86
2023-02-25T23:34:20.552Z,96380.70
2023-02-25T23:36:48.723Z,96383.34
2023-02-25T23:39:16.998Z,96386.16
2023-02-25T23:41:45.058Z,96387.42
2023-02-25T23:44:13.919Z,96391.43
2023-02-25T23:46:46.126Z,96393.52
2023-02-25T23:49:17.125Z,96399.96
2023-02-25T23:51:47.418Z,96399.39
2023-02-25T23:54:18.113Z,96401.64
2023-02-25T23:56:48.824Z,96398.43
2023-02-25T23:59:17.509Z,96399.33
